Time;durP1;ratioP1;P1;durP2;ratioP2;P2;SDS_P1;SDS_P2;PMS_P1;PMS_P2;Temp;Humidity;BMP_temperature;BMP_pressure;BME280_temperature;BME280_humidity;BME280_pressure;Samples;Min_cycle;Max_cycle;Signal;HPM_P1;HPM_P2
2023/03/31 00:00:33;;;;;;;10.60;3.40;;;13.00;99.90;;;;;;5077105;28;20192;-95
2023/03/31 00:03:46;;;;;;;14.53;3.93;;;12.90;99.90;;;;;;5077201;28;20200;-94
2023/03/31 00:06:45;;;;;;;12.13;3.23;;;12.90;99.90;;;;;;5066414;28;20176;-95
2023/03/31 00:10:20;;;;;;;;;;;;;;;;;;;;;
2023/03/31 00:16:24;;;;;;;13.03;3.47;;;12.90;99.90;;;;;;5095789;28;20190;-92
2023/03/31 00:18:50;;;;;;;13.17;3.77;;;12.90;99.90;;;;;;5080583;28;20180;-92
2023/03/31 00:21:54;;;;;;;14.23;3.67;;;13.00;99.90;;;;;;5080515;28;20208;-91
2023/03/31 00:24:16;;;;;;;9.50;3.07;;;12.90;99.90;;;;;;5087512;28;20545;-91
2023/03/31 00:30:14;;;;;;;12.90;2.97;;;12.70;99.90;;;;;;5093673;28;20187;-95
2023/03/31 00:32:40;;;;;;;11.33;2.90;;;12.80;99.90;;;;;;5072943;28;20175;-92
2023/03/31 00:35:10;;;;;;;13.03;3.23;;;12.60;99.90;;;;;;5098815;28;20204;-92
2023/03/31 00:38:12;;;;;;;10.73;2.77;;;12.60;99.90;;;;;;5082182;28;20202;-91
2023/03/31 00:40:59;;;;;;;15.70;3.30;;;12.60;99.90;;;;;;5081500;28;20151;-93
2023/03/31 00:43:58;;;;;;;11.07;2.63;;;12.60;99.90;;;;;;5081695;28;20744;-91
2023/03/31 00:47:09;;;;;;;12.53;3.00;;;12.60;99.90;;;;;;5079561;28;20187;-92
2023/03/31 00:50:16;;;;;;;9.93;2.93;;;12.50;99.90;;;;;;5072007;28;20184;-92
2023/03/31 00:53:19;;;;;;;;;;;;;;;;;;;;;
2023/03/31 00:56:10;;;;;;;18.47;3.63;;;12.40;99.90;;;;;;4999468;28;20707;-93
2023/03/31 00:58:43;;;;;;;16.47;3.70;;;12.40;99.90;;;;;;5068946;28;20179;-93
2023/03/31 01:01:23;;;;;;;15.13;4.13;;;12.40;99.90;;;;;;5084470;28;20268;-92
2023/03/31 01:04:31;;;;;;;;;;;;;;;;;;;;;
2023/03/31 01:07:59;;;;;;;14.00;3.63;;;12.30;99.90;;;;;;5097807;28;20164;-93
2023/03/31 01:11:15;;;;;;;16.17;3.40;;;12.30;99.90;;;;;;4982550;28;20244;-92
2023/03/31 01:16:56;;;;;;;11.73;3.40;;;12.30;99.90;;;;;;5056962;28;20193;-93
2023/03/31 01:20:36;;;;;;;12.63;3.60;;;12.20;99.90;;;;;;5138645;22;20224;-93
2023/03/31 01:27:32;;;;;;;;;;;;;;;;;;;;;
2023/03/31 01:32:03;;;;;;;;;;;;;;;;;;;;;
2023/03/31 01:34:34;;;;;;;9.77;2.53;;;12.10;99.90;;;;;;4998973;28;20193;-93
2023/03/31 01:38:18;;;;;;;7.00;1.97;;;12.10;99.90;;;;;;5073255;28;20219;-93
2023/03/31 01:41:38;;;;;;;;;;;;;;;;;;;;;
2023/03/31 01:48:44;;;;;;;12.37;2.73;;;12.00;99.90;;;;;;5013357;28;20182;-94
2023/03/31 01:52:22;;;;;;;11.33;2.83;;;12.10;99.90;;;;;;4953497;29;20208;-94
2023/03/31 01:59:41;;;;;;;8.90;2.60;;;12.10;99.90;;;;;;4955279;28;20190;-93
2023/03/31 02:03:16;;;;;;;7.33;2.07;;;12.00;99.90;;;;;;4992814;28;20182;-95
2023/03/31 02:06:13;;;;;;;10.13;2.63;;;12.00;99.90;;;;;;4943846;29;20177;-92
2023/03/31 02:09:00;;;;;;;7.03;2.00;;;12.00;99.90;;;;;;5033295;28;20181;-93
2023/03/31 02:12:01;;;;;;;8.43;2.30;;;11.90;99.90;;;;;;5053493;28;20161;-92
2023/03/31 02:14:32;;;;;;;9.73;2.33;;;11.90;99.90;;;;;;5059944;28;20214;-93
2023/03/31 02:17:51;;;;;;;8.00;2.10;;;11.90;99.90;;;;;;5060726;28;20150;-92
2023/03/31 02:20:31;;;;;;;7.23;1.70;;;11.90;99.90;;;;;;5055461;28;20227;-92
2023/03/31 02:23:04;;;;;;;7.80;1.80;;;11.80;99.90;;;;;;5043048;28;20239;-93
2023/03/31 02:25:37;;;;;;;7.43;1.73;;;11.80;99.90;;;;;;5044920;28;20243;-93
2023/03/31 02:28:09;;;;;;;5.73;1.63;;;11.80;99.90;;;;;;5059067;28;20157;-92
2023/03/31 02:30:49;;;;;;;7.67;2.23;;;11.80;99.90;;;;;;5058008;28;20181;-92
2023/03/31 02:34:03;;;;;;;6.63;1.67;;;11.90;99.90;;;;;;5058272;28;20169;-93
2023/03/31 02:37:10;;;;;;;7.23;1.60;;;11.90;99.90;;;;;;5074717;28;20185;-92
2023/03/31 02:40:26;;;;;;;5.70;1.80;;;11.90;99.90;;;;;;5059333;28;20185;-93
2023/03/31 02:54:55;;;;;;;11.13;2.07;;;11.80;99.90;;;;;;4891934;29;20211;-93
2023/03/31 02:58:25;;;;;;;6.53;2.17;;;11.90;99.90;;;;;;4860034;29;20194;-93
2023/03/31 03:02:01;;;;;;;;;;;;;;;;;;;;;
2023/03/31 03:06:02;;;;;;;;;;;;;;;;;;;;;
2023/03/31 03:12:29;;;;;;;8.87;2.10;;;11.90;99.90;;;;;;4860510;29;20193;-92
2023/03/31 03:19:21;;;;;;;7.40;2.40;;;11.90;99.90;;;;;;4942738;29;20189;-92
2023/03/31 03:22:20;;;;;;;8.43;2.20;;;11.80;99.90;;;;;;5035763;28;20280;-92
2023/03/31 03:25:39;;;;;;;8.10;2.33;;;12.10;99.90;;;;;;5022933;28;20178;-94
2023/03/31 03:28:38;;;;;;;9.00;2.43;;;11.90;99.90;;;;;;5057334;28;20153;-95
2023/03/31 03:31:33;;;;;;;13.53;2.97;;;11.80;99.90;;;;;;5057668;28;20179;-95
2023/03/31 03:34:21;;;;;;;8.63;2.60;;;11.90;99.90;;;;;;5028506;28;20330;-93
2023/03/31 03:36:54;;;;;;;13.30;3.03;;;11.90;99.90;;;;;;5025231;28;20201;-93
2023/03/31 03:39:31;;;;;;;9.20;2.50;;;11.60;99.90;;;;;;5044130;28;20189;-92
2023/03/31 03:41:58;;;;;;;8.90;1.83;;;11.60;99.90;;;;;;5025119;28;20169;-92
2023/03/31 03:44:40;;;;;;;7.67;1.87;;;11.50;99.90;;;;;;5026778;28;20709;-93
2023/03/31 03:47:24;;;;;;;3.87;1.17;;;11.40;99.90;;;;;;5027995;28;20592;-93
2023/03/31 03:49:50;;;;;;;4.07;1.13;;;11.40;99.90;;;;;;5054731;28;20720;-93
2023/03/31 03:52:43;;;;;;;3.73;1.00;;;11.20;99.90;;;;;;5054635;28;20190;-93
2023/03/31 03:55:24;;;;;;;1.70;0.80;;;11.20;99.90;;;;;;5005212;28;20205;-96
2023/03/31 03:58:23;;;;;;;;;;;;;;;;;;;;;
2023/03/31 04:01:21;;;;;;;;;;;;;;;;;;;;;
2023/03/31 04:08:07;;;;;;;1.67;0.63;;;11.00;99.90;;;;;;5042020;28;20201;-93
2023/03/31 04:11:12;;;;;;;1.63;0.60;;;11.10;99.90;;;;;;5057796;28;20544;-96
2023/03/31 04:17:04;;;;;;;3.17;0.83;;;11.10;99.90;;;;;;5054614;28;20237;-92
2023/03/31 04:23:45;;;;;;;4.60;1.30;;;11.00;99.90;;;;;;4947750;29;20258;-94
2023/03/31 04:26:49;;;;;;;3.23;1.10;;;11.20;99.90;;;;;;4942669;29;20244;-92
2023/03/31 04:29:40;;;;;;;4.57;1.50;;;11.10;99.90;;;;;;4942366;29;20181;-92
2023/03/31 04:32:19;;;;;;;6.10;2.10;;;11.20;99.90;;;;;;4934886;28;20161;-92
2023/03/31 04:35:41;;;;;;;3.53;1.73;;;11.30;99.90;;;;;;4941951;28;20224;-93
2023/03/31 04:39:04;;;;;;;5.93;2.07;;;11.30;99.90;;;;;;4938832;29;20188;-93
2023/03/31 04:42:23;;;;;;;6.53;2.00;;;11.30;99.90;;;;;;4949028;29;20185;-91
2023/03/31 04:45:20;;;;;;;9.97;2.67;;;11.30;99.90;;;;;;4935473;29;20362;-91
2023/03/31 04:48:43;;;;;;;9.63;3.00;;;11.30;99.90;;;;;;5025391;28;20205;-92
2023/03/31 04:51:52;;;;;;;10.07;2.50;;;11.40;99.90;;;;;;5007979;28;20371;-92
2023/03/31 04:54:38;;;;;;;10.30;2.47;;;11.40;99.90;;;;;;5002181;28;20304;-93
2023/03/31 04:57:09;;;;;;;10.20;2.77;;;11.40;99.90;;;;;;5007910;28;20205;-92
2023/03/31 04:59:49;;;;;;;13.10;2.67;;;11.40;99.90;;;;;;4990988;28;20168;-92
2023/03/31 05:02:27;;;;;;;11.63;2.57;;;11.50;99.90;;;;;;5006932;28;20221;-93
2023/03/31 05:08:10;;;;;;;11.53;3.03;;;11.50;99.90;;;;;;5009948;28;20209;-92
2023/03/31 05:11:58;;;;;;;;;;;;;;;;;;;;;
2023/03/31 05:14:40;;;;;;;12.30;3.30;;;11.50;99.90;;;;;;4949030;29;20286;-93
2023/03/31 05:17:23;;;;;;;10.63;2.87;;;11.50;99.90;;;;;;5018297;28;20174;-92
2023/03/31 05:20:10;;;;;;;13.87;3.70;;;11.50;99.90;;;;;;5018560;28;20602;-93
2023/03/31 05:26:51;;;;;;;;;;;;;;;;;;;;;
2023/03/31 05:29:24;;;;;;;10.57;2.77;;;11.60;99.90;;;;;;4875922;29;20219;-92
2023/03/31 05:31:52;;;;;;;10.10;2.77;;;11.60;99.90;;;;;;4940438;29;20277;-92
2023/03/31 05:34:51;;;;;;;14.10;3.47;;;11.60;99.90;;;;;;4922454;29;20327;-93
2023/03/31 05:37:23;;;;;;;15.70;2.83;;;11.60;99.90;;;;;;5006701;28;20220;-91
2023/03/31 05:40:05;;;;;;;9.90;3.00;;;11.60;99.90;;;;;;5057740;28;20169;-92
2023/03/31 05:43:00;;;;;;;;;;;;;;;;;;;;;
2023/03/31 05:46:12;;;;;;;;;;;;;;;;;;;;;
2023/03/31 05:49:10;;;;;;;12.13;2.90;;;11.70;99.90;;;;;;4977416;28;20176;-93
2023/03/31 05:57:32;;;;;;;10.80;2.70;;;11.80;99.90;;;;;;5033868;28;20197;-92
2023/03/31 06:04:31;;;;;;;;;;;;;;;;;;;;;
2023/03/31 06:12:08;;;;;;;;;;;;;;;;;;;;;
2023/03/31 06:15:22;;;;;;;10.17;3.13;;;12.00;99.90;;;;;;4872236;29;20226;-92
2023/03/31 06:18:19;;;;;;;;;;;;;;;;;;;;;
2023/03/31 06:21:47;;;;;;;11.17;3.00;;;12.20;99.90;;;;;;4899717;29;20212;-93
2023/03/31 06:28:59;;;;;;;12.50;3.33;;;12.20;99.90;;;;;;5013442;28;20221;-93
2023/03/31 06:32:21;;;;;;;14.13;4.17;;;12.30;99.90;;;;;;5038028;28;20171;-91
2023/03/31 06:39:09;;;;;;;;;;;;;;;;;;;;;
2023/03/31 06:46:09;;;;;;;9.13;2.97;;;12.40;99.90;;;;;;4981037;28;20195;-92
2023/03/31 06:49:32;;;;;;;11.80;3.50;;;12.50;99.90;;;;;;4980296;28;20219;-92
2023/03/31 06:53:21;;;;;;;;;;;;;;;;;;;;;
2023/03/31 06:56:43;;;;;;;13.17;4.40;;;12.50;99.90;;;;;;4980721;28;20274;-91
2023/03/31 06:59:14;;;;;;;12.50;3.53;;;12.60;99.90;;;;;;4964325;29;20172;-91
2023/03/31 07:02:27;;;;;;;13.33;3.97;;;12.60;99.90;;;;;;5003551;28;20187;-91
2023/03/31 07:05:31;;;;;;;17.77;4.07;;;12.60;99.90;;;;;;4989013;28;20179;-91
2023/03/31 07:08:47;;;;;;;16.97;4.27;;;12.60;99.90;;;;;;5001529;28;20166;-91
2023/03/31 07:11:44;;;;;;;13.80;4.03;;;12.60;99.90;;;;;;4998673;28;20202;-91
2023/03/31 07:21:55;;;;;;;17.53;3.80;;;12.70;99.90;;;;;;5020504;28;20182;-90
2023/03/31 07:25:27;;;;;;;12.80;3.67;;;12.70;99.90;;;;;;4976415;28;20175;-91
2023/03/31 07:34:05;;;;;;;14.40;4.60;;;12.80;99.90;;;;;;5271696;22;20240;-92
2023/03/31 07:37:24;;;;;;;13.07;4.30;;;12.70;99.90;;;;;;5054330;28;20197;-91
2023/03/31 07:41:03;;;;;;;16.73;4.20;;;12.70;99.90;;;;;;5060150;28;20166;-91
2023/03/31 07:43:33;;;;;;;17.07;4.23;;;12.60;99.90;;;;;;5014852;28;20187;-91
2023/03/31 07:46:23;;;;;;;22.47;4.60;;;12.70;99.90;;;;;;5055502;28;20182;-91
2023/03/31 07:49:14;;;;;;;11.10;3.67;;;12.70;99.90;;;;;;5076232;28;20239;-91
2023/03/31 07:52:06;;;;;;;13.33;3.97;;;12.50;99.90;;;;;;5077262;28;20201;-91
2023/03/31 07:55:25;;;;;;;19.37;4.50;;;12.60;99.90;;;;;;5062273;28;20230;-90
2023/03/31 07:58:54;;;;;;;13.53;4.27;;;12.50;99.90;;;;;;5078558;28;20196;-90
2023/03/31 08:02:54;;;;;;;25.67;5.87;;;12.50;99.90;;;;;;5016820;28;20182;-90
2023/03/31 08:05:48;;;;;;;27.40;5.50;;;12.60;99.90;;;;;;5004848;28;20163;-91
2023/03/31 08:15:59;;;;;;;15.53;4.10;;;12.70;99.90;;;;;;5016081;28;20206;-90
2023/03/31 08:19:02;;;;;;;17.03;3.77;;;12.70;99.90;;;;;;5017630;28;20187;-89
2023/03/31 08:22:11;;;;;;;13.40;4.23;;;12.60;99.90;;;;;;4999500;28;20670;-89
2023/03/31 08:33:42;;;;;;;13.43;3.73;;;12.70;99.90;;;;;;5035417;28;20206;-91
2023/03/31 08:36:20;;;;;;;14.43;3.90;;;12.70;99.90;;;;;;5014988;28;20199;-91
2023/03/31 08:39:36;;;;;;;16.33;3.97;;;12.70;99.90;;;;;;5001565;28;20177;-91
2023/03/31 08:42:53;;;;;;;11.97;3.80;;;12.70;99.90;;;;;;5013021;28;20171;-91
2023/03/31 08:45:56;;;;;;;15.73;3.77;;;12.70;99.90;;;;;;5014835;28;20179;-89
2023/03/31 08:49:32;;;;;;;;;;;;;;;;;;;;;
2023/03/31 08:52:49;;;;;;;12.13;3.13;;;12.70;99.90;;;;;;4999877;28;20199;-90
2023/03/31 08:55:53;;;;;;;16.17;4.23;;;12.70;99.90;;;;;;4999138;28;20207;-89
2023/03/31 08:59:06;;;;;;;15.60;4.40;;;12.70;99.90;;;;;;4995921;28;20172;-91
2023/03/31 09:02:17;;;;;;;21.93;5.83;;;12.70;99.90;;;;;;4996120;28;20191;-91
2023/03/31 09:05:11;;;;;;;13.27;4.90;;;12.70;99.90;;;;;;4984174;28;20207;-91
2023/03/31 09:07:42;;;;;;;19.13;5.70;;;12.80;99.90;;;;;;4996550;28;20176;-91
2023/03/31 09:10:37;;;;;;;15.50;4.97;;;12.80;99.90;;;;;;4997170;28;20199;-91
2023/03/31 09:13:11;;;;;;;19.63;5.13;;;12.70;99.90;;;;;;4980846;28;20196;-91
2023/03/31 09:16:48;;;;;;;19.07;4.73;;;12.60;99.90;;;;;;4996288;28;20188;-91
2023/03/31 09:20:08;;;;;;;18.97;4.93;;;12.70;99.90;;;;;;4996141;28;20172;-92
2023/03/31 09:23:07;;;;;;;13.77;3.97;;;12.90;99.90;;;;;;4995568;28;20659;-91
2023/03/31 09:26:18;;;;;;;15.93;4.10;;;13.00;99.90;;;;;;4997967;28;20177;-90
2023/03/31 09:29:12;;;;;;;16.97;4.70;;;12.90;99.90;;;;;;4978116;28;20198;-91
2023/03/31 09:32:03;;;;;;;18.87;4.77;;;12.90;99.90;;;;;;4993323;28;20198;-91
2023/03/31 09:35:00;;;;;;;16.53;4.70;;;12.90;99.90;;;;;;4977118;28;20339;-91
2023/03/31 09:37:47;;;;;;;21.00;4.87;;;12.90;99.90;;;;;;4995714;28;20183;-91
2023/03/31 09:40:46;;;;;;;17.37;4.43;;;12.90;99.90;;;;;;4978325;28;20174;-91
2023/03/31 09:43:37;;;;;;;15.00;4.47;;;12.90;99.90;;;;;;4995436;28;20197;-90
2023/03/31 09:49:35;;;;;;;16.50;4.50;;;12.70;99.90;;;;;;5234384;23;20266;-89
2023/03/31 09:52:24;;;;;;;22.20;5.27;;;12.90;99.90;;;;;;5019671;28;20169;-90
2023/03/31 09:55:32;;;;;;;18.23;4.97;;;12.80;99.90;;;;;;5036008;28;20210;-91
2023/03/31 09:58:01;;;;;;;15.33;5.00;;;12.80;99.90;;;;;;5035751;28;20166;-90
2023/03/31 10:01:08;;;;;;;21.07;5.43;;;12.60;99.90;;;;;;5020869;28;20189;-90
2023/03/31 10:04:08;;;;;;;17.40;4.77;;;12.80;99.90;;;;;;5037523;28;20229;-90
2023/03/31 10:06:51;;;;;;;18.50;4.50;;;12.80;99.90;;;;;;5019905;28;20186;-91
2023/03/31 10:09:42;;;;;;;19.27;4.77;;;12.80;99.90;;;;;;4982730;28;20166;-89
2023/03/31 10:12:54;;;;;;;18.17;4.73;;;12.90;99.90;;;;;;5051442;23;20289;-89
2023/03/31 10:20:06;;;;;;;21.00;4.77;;;13.00;99.90;;;;;;5478153;22;20250;-89
2023/03/31 10:23:19;;;;;;;21.17;4.70;;;12.90;99.90;;;;;;4938797;29;20163;-89
2023/03/31 10:26:32;;;;;;;17.63;5.30;;;12.90;99.90;;;;;;4923601;29;20256;-89
2023/03/31 10:30:03;;;;;;;15.10;4.73;;;13.00;99.90;;;;;;4894329;29;20175;-88
2023/03/31 10:32:56;;;;;;;21.70;4.93;;;12.90;99.90;;;;;;4901040;29;20198;-90
2023/03/31 10:35:51;;;;;;;25.37;5.37;;;13.10;99.90;;;;;;4942283;29;20222;-89
2023/03/31 10:38:55;;;;;;;17.97;4.63;;;13.10;99.90;;;;;;5054182;28;20228;-89
2023/03/31 10:41:49;;;;;;;12.97;4.07;;;13.20;99.90;;;;;;5100036;23;20302;-90
2023/03/31 10:44:39;;;;;;;17.43;4.63;;;13.20;99.90;;;;;;5059392;28;20229;-91
2023/03/31 10:47:37;;;;;;;14.47;4.90;;;13.10;99.90;;;;;;5050054;28;20193;-91
2023/03/31 10:50:14;;;;;;;18.80;4.40;;;13.10;99.90;;;;;;5067982;28;20262;-91
2023/03/31 10:53:28;;;;;;;13.80;3.90;;;13.10;99.90;;;;;;5074705;28;20179;-91
2023/03/31 10:56:34;;;;;;;16.50;4.30;;;13.20;99.90;;;;;;5052457;28;20212;-91
2023/03/31 10:59:50;;;;;;;17.70;4.53;;;13.20;99.90;;;;;;5068802;28;20165;-91
2023/03/31 11:02:56;;;;;;;19.83;5.40;;;13.20;99.90;;;;;;5067605;28;20684;-92
2023/03/31 11:05:44;;;;;;;11.80;3.90;;;13.10;99.90;;;;;;5057638;28;20210;-91
2023/03/31 11:08:39;;;;;;;13.87;4.23;;;13.10;99.90;;;;;;5059034;28;20180;-91
2023/03/31 11:11:31;;;;;;;17.27;4.13;;;13.00;99.90;;;;;;5080399;28;20165;-91
2023/03/31 11:17:20;;;;;;;14.83;3.50;;;13.00;99.90;;;;;;5028810;28;20204;-91
2023/03/31 11:20:19;;;;;;;17.70;4.17;;;13.00;99.90;;;;;;5001103;28;20204;-91
2023/03/31 11:26:06;;;;;;;14.67;3.47;;;13.00;99.90;;;;;;5016605;28;20210;-90
2023/03/31 11:29:22;;;;;;;13.93;3.60;;;13.20;99.90;;;;;;5019519;28;20156;-90
2023/03/31 11:35:08;;;;;;;12.70;3.07;;;13.20;99.90;;;;;;5075062;28;20223;-90
2023/03/31 11:38:19;;;;;;;7.20;2.13;;;13.30;99.90;;;;;;5074731;28;20189;-90
2023/03/31 11:41:26;;;;;;;12.60;3.70;;;13.40;99.90;;;;;;5078961;28;20183;-90
2023/03/31 11:44:19;;;;;;;10.00;2.90;;;13.50;99.90;;;;;;5077887;28;20613;-90
2023/03/31 11:47:31;;;;;;;16.17;3.47;;;13.60;99.90;;;;;;5079232;28;20162;-89
2023/03/31 11:50:29;;;;;;;12.43;2.60;;;13.60;99.90;;;;;;5079016;28;20188;-87
2023/03/31 11:53:25;;;;;;;7.93;2.73;;;13.50;99.90;;;;;;5079271;28;20205;-90
2023/03/31 11:56:16;;;;;;;8.00;2.40;;;13.50;99.90;;;;;;5077418;28;20257;-90
2023/03/31 11:59:01;;;;;;;13.73;3.20;;;13.50;99.90;;;;;;5078567;28;20248;-89
2023/03/31 12:01:55;;;;;;;12.53;3.37;;;13.50;99.90;;;;;;5078968;28;20179;-90
2023/03/31 12:05:19;;;;;;;12.40;3.40;;;13.40;99.90;;;;;;5062246;28;20190;-90
2023/03/31 12:08:19;;;;;;;11.03;3.10;;;13.20;99.90;;;;;;5075008;28;20250;-90
2023/03/31 12:11:37;;;;;;;10.67;3.20;;;13.20;99.90;;;;;;5069863;28;20165;-89
2023/03/31 12:14:34;;;;;;;13.87;3.20;;;13.00;99.90;;;;;;5076187;28;20186;-90
2023/03/31 12:17:36;;;;;;;12.53;3.30;;;12.80;99.90;;;;;;5078790;28;20185;-89
2023/03/31 12:20:44;;;;;;;10.37;2.80;;;12.70;99.90;;;;;;5063179;28;20196;-90
2023/03/31 12:23:20;;;;;;;14.43;3.60;;;12.60;99.90;;;;;;5076995;28;20165;-90
2023/03/31 12:25:48;;;;;;;11.87;3.07;;;12.50;99.90;;;;;;5076269;28;20183;-90
2023/03/31 12:28:56;;;;;;;10.20;2.57;;;12.40;99.90;;;;;;5059390;28;20340;-89
2023/03/31 12:31:25;;;;;;;12.77;2.77;;;12.40;99.90;;;;;;5076038;28;20204;-89
2023/03/31 12:34:08;;;;;;;8.73;2.63;;;12.40;99.90;;;;;;5040971;28;20224;-91
2023/03/31 12:36:57;;;;;;;10.97;2.53;;;12.50;99.90;;;;;;5059661;28;20169;-90
2023/03/31 12:40:27;;;;;;;12.67;3.20;;;12.50;99.90;;;;;;5057206;28;20225;-89
2023/03/31 12:43:14;;;;;;;9.77;2.87;;;12.60;99.90;;;;;;4982612;28;20183;-90
2023/03/31 12:46:16;;;;;;;9.27;2.27;;;12.70;99.90;;;;;;5047931;28;20640;-90
2023/03/31 12:49:31;;;;;;;6.40;1.77;;;12.80;99.90;;;;;;5052632;28;20646;-91
2023/03/31 12:52:15;;;;;;;6.50;1.90;;;12.80;99.90;;;;;;5051408;28;20200;-90
2023/03/31 12:54:41;;;;;;;6.90;2.23;;;12.80;99.90;;;;;;5048333;28;20220;-90
2023/03/31 12:57:07;;;;;;;6.10;1.87;;;12.90;99.90;;;;;;5054318;28;20210;-90
2023/03/31 13:00:09;;;;;;;5.80;1.67;;;13.00;99.90;;;;;;5058402;28;20206;-90
2023/03/31 13:03:33;;;;;;;3.77;1.40;;;13.10;99.90;;;;;;5075453;28;20173;-90
2023/03/31 13:06:11;;;;;;;3.43;1.30;;;13.20;99.90;;;;;;5074539;28;20211;-90
2023/03/31 13:09:21;;;;;;;5.03;1.47;;;13.20;99.90;;;;;;5043593;28;20195;-90
2023/03/31 13:11:58;;;;;;;2.47;1.17;;;13.10;99.90;;;;;;5075329;28;20169;-90
2023/03/31 13:17:46;;;;;;;2.83;1.00;;;13.10;99.90;;;;;;5054809;28;20222;-95
2023/03/31 13:24:17;;;;;;;3.73;0.97;;;12.80;99.90;;;;;;5052722;28;20200;-89
2023/03/31 13:26:48;;;;;;;3.03;0.77;;;12.80;99.90;;;;;;5053626;28;20181;-91
2023/03/31 13:29:21;;;;;;;2.63;0.90;;;12.70;99.90;;;;;;5055440;28;20169;-91
2023/03/31 13:32:44;;;;;;;2.53;0.90;;;12.70;99.90;;;;;;5084466;23;20259;-91
2023/03/31 13:35:35;;;;;;;4.87;1.00;;;12.50;99.90;;;;;;5009482;28;20214;-91
2023/03/31 13:38:21;;;;;;;3.80;1.10;;;12.60;99.90;;;;;;5034699;28;20189;-94
2023/03/31 13:41:08;;;;;;;2.30;0.93;;;12.60;99.90;;;;;;5035776;28;20196;-90
2023/03/31 13:44:20;;;;;;;3.13;0.60;;;12.50;99.90;;;;;;5051196;28;20176;-91
2023/03/31 13:47:21;;;;;;;3.03;0.77;;;12.80;99.90;;;;;;4977236;28;20176;-91
2023/03/31 13:50:41;;;;;;;;;;;;;;;;;;;;;
2023/03/31 13:53:29;;;;;;;3.40;0.80;;;12.60;99.90;;;;;;5010422;28;20250;-92
2023/03/31 13:56:34;;;;;;;4.27;0.90;;;12.50;99.90;;;;;;5010860;28;20214;-94
2023/03/31 14:00:00;;;;;;;3.80;1.07;;;12.40;99.90;;;;;;4995724;28;20325;-95
2023/03/31 14:03:03;;;;;;;3.63;0.97;;;12.30;99.90;;;;;;4931069;29;20170;-92
2023/03/31 14:05:53;;;;;;;2.17;0.93;;;12.20;99.90;;;;;;4935336;29;20241;-95
2023/03/31 14:08:38;;;;;;;3.03;0.90;;;12.20;99.90;;;;;;4912574;29;20179;-94
2023/03/31 14:11:31;;;;;;;2.17;0.70;;;12.20;99.90;;;;;;4917952;29;20197;-96
2023/03/31 14:14:31;;;;;;;3.20;0.90;;;12.20;99.90;;;;;;4947704;28;20269;-92
2023/03/31 14:17:17;;;;;;;1.97;1.00;;;12.30;99.90;;;;;;5002780;28;20237;-92
2023/03/31 14:23:40;;;;;;;1.83;0.60;;;12.30;99.90;;;;;;5016209;28;20195;-90
2023/03/31 14:26:29;;;;;;;2.10;0.60;;;12.30;99.90;;;;;;4961384;28;20235;-96
2023/03/31 14:29:33;;;;;;;3.07;0.80;;;12.30;99.90;;;;;;4997957;28;20186;-87
2023/03/31 14:32:09;;;;;;;2.93;0.93;;;12.40;99.90;;;;;;5001209;28;20182;-91
2023/03/31 14:34:48;;;;;;;2.50;1.03;;;12.40;99.90;;;;;;5001639;28;20202;-92
2023/03/31 14:37:23;;;;;;;1.53;0.60;;;12.40;99.90;;;;;;5003130;28;20201;-94
2023/03/31 14:40:12;;;;;;;1.90;0.70;;;12.50;99.90;;;;;;5036890;28;20187;-92
2023/03/31 14:42:48;;;;;;;1.97;0.90;;;12.50;99.90;;;;;;5031735;28;20185;-93
2023/03/31 14:45:24;;;;;;;0.80;0.50;;;12.30;99.90;;;;;;5020886;28;20174;-89
2023/03/31 14:48:22;;;;;;;1.30;0.50;;;12.50;99.90;;;;;;5031658;28;20473;-89
2023/03/31 14:50:48;;;;;;;2.97;0.57;;;12.60;99.90;;;;;;4997510;28;20174;-87
2023/03/31 14:53:46;;;;;;;1.47;0.70;;;12.60;99.90;;;;;;5053090;28;20178;-89
2023/03/31 14:56:18;;;;;;;2.53;1.10;;;12.50;99.90;;;;;;5044856;28;20201;-90
2023/03/31 14:59:29;;;;;;;2.77;0.80;;;12.50;99.90;;;;;;5052686;28;20208;-89
2023/03/31 15:02:40;;;;;;;2.57;0.70;;;12.40;99.90;;;;;;5059706;28;20162;-94
2023/03/31 15:05:34;;;;;;;3.33;0.90;;;12.30;99.90;;;;;;5039062;28;20181;-91
2023/03/31 15:08:13;;;;;;;3.80;0.90;;;12.20;99.90;;;;;;5039256;28;20191;-90
2023/03/31 15:10:42;;;;;;;3.47;1.00;;;12.20;99.90;;;;;;5036282;28;20268;-91
2023/03/31 15:13:17;;;;;;;2.10;0.80;;;12.20;99.90;;;;;;5034600;28;20173;-91
2023/03/31 15:15:46;;;;;;;4.23;0.93;;;12.20;99.90;;;;;;5045303;28;20227;-90
2023/03/31 15:18:13;;;;;;;2.43;0.83;;;12.20;99.90;;;;;;5036328;28;20248;-90
2023/03/31 15:20:40;;;;;;;3.20;0.80;;;12.20;99.90;;;;;;5040982;28;20192;-89
2023/03/31 15:23:34;;;;;;;3.87;0.93;;;12.20;99.90;;;;;;5055214;28;20231;-90
2023/03/31 15:26:10;;;;;;;2.57;0.90;;;12.20;99.90;;;;;;5033096;28;20630;-90
2023/03/31 15:28:48;;;;;;;1.33;0.70;;;12.20;99.90;;;;;;5034781;28;20205;-89
2023/03/31 15:31:15;;;;;;;2.50;0.70;;;12.20;99.90;;;;;;5037999;28;20200;-89
2023/03/31 15:33:45;;;;;;;4.47;0.97;;;12.40;99.90;;;;;;5041113;28;20209;-90
2023/03/31 15:36:21;;;;;;;2.00;0.90;;;12.30;99.90;;;;;;5036235;28;20181;-89
2023/03/31 15:38:57;;;;;;;3.63;1.10;;;12.30;99.90;;;;;;5047297;28;20245;-90
2023/03/31 15:41:29;;;;;;;3.73;1.13;;;12.50;99.90;;;;;;5030512;28;20184;-89
2023/03/31 15:44:27;;;;;;;4.07;1.30;;;12.30;99.90;;;;;;5056047;28;20158;-91
2023/03/31 15:47:14;;;;;;;6.80;1.07;;;12.10;99.90;;;;;;5037199;28;20177;-92
2023/03/31 15:50:13;;;;;;;3.50;1.13;;;12.10;99.90;;;;;;5044309;28;20614;-89
2023/03/31 15:55:54;;;;;;;3.70;1.13;;;12.10;99.90;;;;;;5049558;28;20205;-91
2023/03/31 15:58:44;;;;;;;5.87;1.40;;;12.20;99.90;;;;;;5027973;28;20213;-95
2023/03/31 16:01:16;;;;;;;5.27;1.53;;;12.20;99.90;;;;;;5026183;28;20189;-93
2023/03/31 16:03:52;;;;;;;5.50;1.50;;;12.20;99.90;;;;;;5032459;28;20224;-94
2023/03/31 16:06:43;;;;;;;6.00;1.07;;;12.10;99.90;;;;;;5035675;28;20178;-93
2023/03/31 16:09:43;;;;;;;3.77;1.50;;;12.20;99.90;;;;;;5048993;28;20166;-93
2023/03/31 16:15:44;;;;;;;6.13;1.93;;;12.00;99.90;;;;;;5045539;28;20216;-94
2023/03/31 16:18:30;;;;;;;7.53;2.37;;;12.00;99.90;;;;;;5031679;28;20276;-92
2023/03/31 16:21:13;;;;;;;4.63;1.57;;;11.90;99.90;;;;;;5028260;28;20210;-96
2023/03/31 16:24:04;;;;;;;7.73;2.30;;;11.80;99.90;;;;;;5010214;28;20173;-94
2023/03/31 16:26:30;;;;;;;9.23;2.27;;;11.80;99.90;;;;;;5046888;28;20190;-94
2023/03/31 16:28:59;;;;;;;8.40;2.07;;;11.80;99.90;;;;;;5031816;28;20178;-95
2023/03/31 16:31:39;;;;;;;7.57;1.80;;;11.70;99.90;;;;;;5022386;28;20201;-93
2023/03/31 16:34:07;;;;;;;7.47;2.30;;;11.60;99.90;;;;;;5032966;28;20207;-91
2023/03/31 16:36:34;;;;;;;10.20;2.17;;;11.70;99.90;;;;;;5056313;28;20154;-95
2023/03/31 16:39:05;;;;;;;7.50;2.00;;;11.60;99.90;;;;;;5047364;28;20169;-95
2023/03/31 16:41:36;;;;;;;7.23;1.90;;;11.50;99.90;;;;;;5045808;28;20566;-92
2023/03/31 16:44:07;;;;;;;8.43;2.17;;;11.50;99.90;;;;;;5045066;28;20178;-94
2023/03/31 16:46:34;;;;;;;12.30;2.33;;;11.50;99.90;;;;;;5045700;28;20165;-95
2023/03/31 16:49:02;;;;;;;7.43;2.10;;;11.60;99.90;;;;;;5040345;28;20763;-93
2023/03/31 16:51:30;;;;;;;10.10;2.00;;;11.50;99.90;;;;;;5041494;28;20177;-95
2023/03/31 16:54:09;;;;;;;7.93;2.40;;;11.60;99.90;;;;;;5029083;28;20186;-96
2023/03/31 16:56:35;;;;;;;7.20;1.60;;;11.50;99.90;;;;;;5032994;28;20161;-95
2023/03/31 16:59:07;;;;;;;8.17;1.73;;;11.40;99.90;;;;;;5037315;28;20210;-93
2023/03/31 17:01:37;;;;;;;6.83;1.67;;;11.40;99.90;;;;;;5038708;28;20174;-96
2023/03/31 17:04:14;;;;;;;4.83;1.90;;;11.40;99.90;;;;;;5053539;28;20269;-93
2023/03/31 17:07:03;;;;;;;5.47;1.40;;;11.40;99.90;;;;;;5045628;28;20252;-95
2023/03/31 17:09:32;;;;;;;6.40;1.57;;;11.40;99.90;;;;;;5040258;28;20166;-96
2023/03/31 17:12:33;;;;;;;7.53;1.87;;;11.40;99.90;;;;;;5058436;28;20211;-96
2023/03/31 17:15:05;;;;;;;8.37;2.03;;;11.40;99.90;;;;;;5044435;28;20223;-96
2023/03/31 17:17:42;;;;;;;6.77;1.77;;;11.40;99.90;;;;;;5010969;28;20180;-96
2023/03/31 17:20:13;;;;;;;9.60;2.53;;;11.50;99.90;;;;;;5036433;28;20170;-95
2023/03/31 17:22:57;;;;;;;;;;;;;;;;;;;;;
2023/03/31 17:25:45;;;;;;;8.57;2.17;;;11.40;99.90;;;;;;5055500;28;20233;-96
2023/03/31 17:28:13;;;;;;;6.07;2.03;;;11.40;99.90;;;;;;5043465;28;20192;-96
2023/03/31 17:30:56;;;;;;;7.00;2.20;;;11.30;99.90;;;;;;5061065;28;20178;-96
2023/03/31 17:37:20;;;;;;;6.13;2.00;;;11.30;99.90;;;;;;5028088;28;20179;-95
2023/03/31 17:39:49;;;;;;;8.90;2.53;;;11.20;99.90;;;;;;5018588;28;20169;-96
2023/03/31 17:51:21;;;;;;;12.53;3.20;;;11.10;99.90;;;;;;5041453;28;20214;-96
2023/03/31 17:53:48;;;;;;;10.37;2.97;;;11.10;99.90;;;;;;5054664;28;20154;-93
2023/03/31 17:56:19;;;;;;;9.77;2.87;;;11.30;99.90;;;;;;5027429;28;20161;-93
2023/03/31 17:58:51;;;;;;;13.80;3.63;;;11.10;99.90;;;;;;5043338;28;20205;-95
2023/03/31 18:01:20;;;;;;;14.70;3.87;;;11.10;99.90;;;;;;5055010;28;20263;-96
2023/03/31 18:15:15;;;;;;;12.63;3.20;;;11.10;99.90;;;;;;5087943;28;20214;-95
2023/03/31 18:17:44;;;;;;;14.10;3.80;;;11.00;99.90;;;;;;5091692;28;20176;-93
2023/03/31 18:27:52;;;;;;;12.73;4.27;;;11.00;99.90;;;;;;5094135;28;20230;-92